sensor_id;sensor_type;location;lat;lon;timestamp;P1;durP1;ratioP1;P2;durP2;ratioP2
34497;SDS011;20744;50.938;7.286;2022-11-04T00:01:20;9.07;;;2.47;;
34497;SDS011;20744;50.938;7.286;2022-11-04T00:03:48;4.93;;;2.38;;
34497;SDS011;20744;50.938;7.286;2022-11-04T00:06:16;5.78;;;2.20;;
34497;SDS011;20744;50.938;7.286;2022-11-04T00:08:46;8.93;;;2.53;;
34497;SDS011;20744;50.938;7.286;2022-11-04T00:11:13;7.85;;;2.22;;
34497;SDS011;20744;50.938;7.286;2022-11-04T00:14:00;4.93;;;2.50;;
34497;SDS011;20744;50.938;7.286;2022-11-04T00:16:27;5.82;;;2.30;;
34497;SDS011;20744;50.938;7.286;2022-11-04T00:19:12;2.58;;;1.70;;
34497;SDS011;20744;50.938;7.286;2022-11-04T00:21:39;3.72;;;1.95;;
34497;SDS011;20744;50.938;7.286;2022-11-04T00:24:24;5.72;;;2.22;;
34497;SDS011;20744;50.938;7.286;2022-11-04T00:27:09;4.75;;;2.00;;
34497;SDS011;20744;50.938;7.286;2022-11-04T00:29:55;3.30;;;2.03;;
34497;SDS011;20744;50.938;7.286;2022-11-04T00:32:22;4.47;;;2.13;;
34497;SDS011;20744;50.938;7.286;2022-11-04T00:35:07;5.80;;;1.90;;
34497;SDS011;20744;50.938;7.286;2022-11-04T00:37:35;3.22;;;1.88;;
34497;SDS011;20744;50.938;7.286;2022-11-04T00:40:03;7.15;;;1.90;;
34497;SDS011;20744;50.938;7.286;2022-11-04T00:42:30;3.28;;;1.85;;
34497;SDS011;20744;50.938;7.286;2022-11-04T00:44:59;4.13;;;2.15;;
34497;SDS011;20744;50.938;7.286;2022-11-04T00:47:26;4.82;;;1.80;;
34497;SDS011;20744;50.938;7.286;2022-11-04T00:49:53;4.20;;;1.90;;
34497;SDS011;20744;50.938;7.286;2022-11-04T00:52:20;2.72;;;1.75;;
34497;SDS011;20744;50.938;7.286;2022-11-04T00:54:48;2.80;;;2.05;;
34497;SDS011;20744;50.938;7.286;2022-11-04T00:57:15;6.95;;;2.28;;
34497;SDS011;20744;50.938;7.286;2022-11-04T00:59:42;4.43;;;2.30;;
34497;SDS011;20744;50.938;7.286;2022-11-04T01:02:11;7.82;;;2.70;;
34497;SDS011;20744;50.938;7.286;2022-11-04T01:04:38;6.35;;;2.65;;
34497;SDS011;20744;50.938;7.286;2022-11-04T01:07:06;7.68;;;3.88;;
34497;SDS011;20744;50.938;7.286;2022-11-04T01:09:33;6.68;;;3.67;;
34497;SDS011;20744;50.938;7.286;2022-11-04T01:12:00;7.72;;;3.50;;
34497;SDS011;20744;50.938;7.286;2022-11-04T01:14:27;7.60;;;4.00;;
34497;SDS011;20744;50.938;7.286;2022-11-04T01:16:55;9.25;;;4.47;;
34497;SDS011;20744;50.938;7.286;2022-11-04T01:19:23;10.23;;;4.18;;
34497;SDS011;20744;50.938;7.286;2022-11-04T01:21:50;9.15;;;3.97;;
34497;SDS011;20744;50.938;7.286;2022-11-04T01:24:18;7.03;;;3.95;;
34497;SDS011;20744;50.938;7.286;2022-11-04T01:26:45;7.20;;;4.00;;
34497;SDS011;20744;50.938;7.286;2022-11-04T01:29:12;7.18;;;3.60;;
34497;SDS011;20744;50.938;7.286;2022-11-04T01:31:39;6.32;;;3.97;;
34497;SDS011;20744;50.938;7.286;2022-11-04T01:34:07;8.40;;;3.67;;
34497;SDS011;20744;50.938;7.286;2022-11-04T01:36:36;7.43;;;3.72;;
34497;SDS011;20744;50.938;7.286;2022-11-04T01:39:03;5.55;;;3.17;;
34497;SDS011;20744;50.938;7.286;2022-11-04T01:41:31;7.80;;;3.05;;
34497;SDS011;20744;50.938;7.286;2022-11-04T01:43:59;5.28;;;3.38;;
34497;SDS011;20744;50.938;7.286;2022-11-04T01:46:28;5.43;;;2.40;;
34497;SDS011;20744;50.938;7.286;2022-11-04T01:48:58;6.43;;;2.95;;
34497;SDS011;20744;50.938;7.286;2022-11-04T01:51:27;8.00;;;2.97;;
34497;SDS011;20744;50.938;7.286;2022-11-04T01:53:58;3.35;;;2.30;;
34497;SDS011;20744;50.938;7.286;2022-11-04T01:56:26;5.85;;;2.75;;
34497;SDS011;20744;50.938;7.286;2022-11-04T01:58:55;3.25;;;2.13;;
34497;SDS011;20744;50.938;7.286;2022-11-04T02:01:23;3.53;;;1.60;;
34497;SDS011;20744;50.938;7.286;2022-11-04T02:03:51;3.22;;;1.73;;
34497;SDS011;20744;50.938;7.286;2022-11-04T02:06:19;4.88;;;1.70;;
34497;SDS011;20744;50.938;7.286;2022-11-04T02:08:47;3.95;;;1.65;;
34497;SDS011;20744;50.938;7.286;2022-11-04T02:11:16;4.07;;;2.05;;
34497;SDS011;20744;50.938;7.286;2022-11-04T02:13:57;2.97;;;1.52;;
34497;SDS011;20744;50.938;7.286;2022-11-04T02:16:27;4.80;;;1.30;;
34497;SDS011;20744;50.938;7.286;2022-11-04T02:19:00;2.47;;;1.43;;
34497;SDS011;20744;50.938;7.286;2022-11-04T02:27:08;5.28;;;1.50;;
34497;SDS011;20744;50.938;7.286;2022-11-04T02:32:29;3.50;;;1.27;;
34497;SDS011;20744;50.938;7.286;2022-11-04T02:35:00;2.50;;;1.27;;
34497;SDS011;20744;50.938;7.286;2022-11-04T02:37:32;2.55;;;1.40;;
34497;SDS011;20744;50.938;7.286;2022-11-04T02:40:04;3.47;;;1.50;;
34497;SDS011;20744;50.938;7.286;2022-11-04T02:42:33;4.30;;;1.17;;
34497;SDS011;20744;50.938;7.286;2022-11-04T02:45:09;5.38;;;1.42;;
34497;SDS011;20744;50.938;7.286;2022-11-04T02:47:40;3.10;;;1.10;;
34497;SDS011;20744;50.938;7.286;2022-11-04T02:50:10;2.33;;;1.20;;
34497;SDS011;20744;50.938;7.286;2022-11-04T02:52:40;5.40;;;1.35;;
34497;SDS011;20744;50.938;7.286;2022-11-04T02:55:10;4.93;;;1.17;;
34497;SDS011;20744;50.938;7.286;2022-11-04T02:57:39;3.80;;;1.30;;
34497;SDS011;20744;50.938;7.286;2022-11-04T03:00:07;5.60;;;0.90;;
34497;SDS011;20744;50.938;7.286;2022-11-04T03:02:37;3.25;;;1.48;;
34497;SDS011;20744;50.938;7.286;2022-11-04T03:05:08;1.65;;;1.10;;
34497;SDS011;20744;50.938;7.286;2022-11-04T03:07:38;2.65;;;1.42;;
34497;SDS011;20744;50.938;7.286;2022-11-04T03:10:08;3.78;;;1.50;;
34497;SDS011;20744;50.938;7.286;2022-11-04T03:12:38;5.32;;;1.33;;
34497;SDS011;20744;50.938;7.286;2022-11-04T03:15:08;5.53;;;1.52;;
34497;SDS011;20744;50.938;7.286;2022-11-04T03:17:38;1.98;;;1.27;;
34497;SDS011;20744;50.938;7.286;2022-11-04T03:20:10;6.35;;;1.13;;
34497;SDS011;20744;50.938;7.286;2022-11-04T03:22:39;3.60;;;1.50;;
34497;SDS011;20744;50.938;7.286;2022-11-04T03:25:06;5.78;;;1.65;;
34497;SDS011;20744;50.938;7.286;2022-11-04T03:27:37;2.35;;;1.10;;
34497;SDS011;20744;50.938;7.286;2022-11-04T03:30:08;5.70;;;1.40;;
34497;SDS011;20744;50.938;7.286;2022-11-04T03:32:38;3.38;;;1.45;;
34497;SDS011;20744;50.938;7.286;2022-11-04T03:35:06;3.45;;;1.33;;
34497;SDS011;20744;50.938;7.286;2022-11-04T03:37:35;2.28;;;1.30;;
34497;SDS011;20744;50.938;7.286;2022-11-04T03:40:02;7.00;;;1.48;;
34497;SDS011;20744;50.938;7.286;2022-11-04T03:42:30;3.35;;;1.33;;
34497;SDS011;20744;50.938;7.286;2022-11-04T03:44:58;7.03;;;1.60;;
34497;SDS011;20744;50.938;7.286;2022-11-04T03:47:26;3.13;;;1.20;;
34497;SDS011;20744;50.938;7.286;2022-11-04T03:49:54;4.30;;;1.65;;
34497;SDS011;20744;50.938;7.286;2022-11-04T03:52:23;4.68;;;1.45;;
34497;SDS011;20744;50.938;7.286;2022-11-04T03:54:52;1.60;;;1.20;;
34497;SDS011;20744;50.938;7.286;2022-11-04T04:00:05;3.47;;;1.35;;
34497;SDS011;20744;50.938;7.286;2022-11-04T04:02:38;8.13;;;1.30;;
34497;SDS011;20744;50.938;7.286;2022-11-04T04:05:06;5.55;;;1.25;;
34497;SDS011;20744;50.938;7.286;2022-11-04T04:07:37;6.18;;;1.90;;
34497;SDS011;20744;50.938;7.286;2022-11-04T04:10:08;5.97;;;1.38;;
34497;SDS011;20744;50.938;7.286;2022-11-04T04:12:52;6.15;;;1.23;;
34497;SDS011;20744;50.938;7.286;2022-11-04T04:15:22;3.25;;;1.20;;
34497;SDS011;20744;50.938;7.286;2022-11-04T04:17:53;2.35;;;1.10;;
34497;SDS011;20744;50.938;7.286;2022-11-04T04:20:22;2.65;;;1.10;;
34497;SDS011;20744;50.938;7.286;2022-11-04T04:22:51;4.05;;;1.10;;
34497;SDS011;20744;50.938;7.286;2022-11-04T04:25:20;5.25;;;1.23;;
34497;SDS011;20744;50.938;7.286;2022-11-04T04:28:07;3.55;;;1.20;;
34497;SDS011;20744;50.938;7.286;2022-11-04T04:30:36;8.80;;;1.98;;
34497;SDS011;20744;50.938;7.286;2022-11-04T04:33:04;2.10;;;1.02;;
34497;SDS011;20744;50.938;7.286;2022-11-04T04:35:33;6.75;;;1.95;;
34497;SDS011;20744;50.938;7.286;2022-11-04T04:38:08;4.43;;;1.45;;
34497;SDS011;20744;50.938;7.286;2022-11-04T04:40:58;6.30;;;1.70;;
34497;SDS011;20744;50.938;7.286;2022-11-04T04:43:45;6.32;;;1.45;;
34497;SDS011;20744;50.938;7.286;2022-11-04T04:46:30;6.53;;;2.03;;
34497;SDS011;20744;50.938;7.286;2022-11-04T04:49:02;3.05;;;1.35;;
34497;SDS011;20744;50.938;7.286;2022-11-04T04:51:29;3.33;;;1.50;;
34497;SDS011;20744;50.938;7.286;2022-11-04T04:53:57;8.63;;;1.67;;
34497;SDS011;20744;50.938;7.286;2022-11-04T04:56:25;3.95;;;1.38;;
34497;SDS011;20744;50.938;7.286;2022-11-04T04:58:53;6.38;;;1.40;;
34497;SDS011;20744;50.938;7.286;2022-11-04T05:01:20;4.40;;;1.50;;
34497;SDS011;20744;50.938;7.286;2022-11-04T05:03:47;3.38;;;1.27;;
34497;SDS011;20744;50.938;7.286;2022-11-04T05:06:14;6.93;;;1.85;;
34497;SDS011;20744;50.938;7.286;2022-11-04T05:08:42;2.67;;;1.30;;
34497;SDS011;20744;50.938;7.286;2022-11-04T05:11:09;5.72;;;1.20;;
34497;SDS011;20744;50.938;7.286;2022-11-04T05:13:38;6.13;;;1.17;;
34497;SDS011;20744;50.938;7.286;2022-11-04T05:16:06;3.60;;;1.08;;
34497;SDS011;20744;50.938;7.286;2022-11-04T05:18:34;6.80;;;1.13;;
34497;SDS011;20744;50.938;7.286;2022-11-04T05:21:02;9.07;;;1.52;;
34497;SDS011;20744;50.938;7.286;2022-11-04T05:23:29;8.75;;;1.48;;
34497;SDS011;20744;50.938;7.286;2022-11-04T05:25:57;7.30;;;1.15;;
34497;SDS011;20744;50.938;7.286;2022-11-04T05:28:24;3.97;;;1.42;;
34497;SDS011;20744;50.938;7.286;2022-11-04T05:30:53;3.97;;;1.80;;
34497;SDS011;20744;50.938;7.286;2022-11-04T05:33:20;4.07;;;1.40;;
34497;SDS011;20744;50.938;7.286;2022-11-04T05:35:47;6.20;;;1.33;;
34497;SDS011;20744;50.938;7.286;2022-11-04T05:38:15;6.38;;;1.20;;
34497;SDS011;20744;50.938;7.286;2022-11-04T05:40:42;5.15;;;1.38;;
34497;SDS011;20744;50.938;7.286;2022-11-04T05:43:09;6.07;;;1.38;;
34497;SDS011;20744;50.938;7.286;2022-11-04T05:45:36;8.85;;;1.67;;
34497;SDS011;20744;50.938;7.286;2022-11-04T05:48:05;6.20;;;1.38;;
34497;SDS011;20744;50.938;7.286;2022-11-04T05:50:32;5.05;;;1.63;;
34497;SDS011;20744;50.938;7.286;2022-11-04T05:53:00;4.18;;;1.13;;
34497;SDS011;20744;50.938;7.286;2022-11-04T05:55:27;4.80;;;1.60;;
34497;SDS011;20744;50.938;7.286;2022-11-04T05:57:54;5.82;;;1.80;;
34497;SDS011;20744;50.938;7.286;2022-11-04T06:00:23;3.03;;;1.38;;
34497;SDS011;20744;50.938;7.286;2022-11-04T06:02:50;6.88;;;2.78;;
34497;SDS011;20744;50.938;7.286;2022-11-04T06:05:19;7.22;;;4.20;;
34497;SDS011;20744;50.938;7.286;2022-11-04T06:07:46;11.32;;;5.55;;
34497;SDS011;20744;50.938;7.286;2022-11-04T06:10:13;13.25;;;4.35;;
34497;SDS011;20744;50.938;7.286;2022-11-04T06:12:41;12.00;;;3.08;;
34497;SDS011;20744;50.938;7.286;2022-11-04T06:15:08;7.13;;;3.47;;
34497;SDS011;20744;50.938;7.286;2022-11-04T06:17:36;7.05;;;3.70;;
34497;SDS011;20744;50.938;7.286;2022-11-04T06:20:03;14.00;;;6.70;;
34497;SDS011;20744;50.938;7.286;2022-11-04T06:22:32;13.18;;;8.95;;
34497;SDS011;20744;50.938;7.286;2022-11-04T06:25:00;12.50;;;6.10;;
34497;SDS011;20744;50.938;7.286;2022-11-04T06:27:27;11.52;;;4.97;;
34497;SDS011;20744;50.938;7.286;2022-11-04T06:29:54;7.15;;;4.15;;
34497;SDS011;20744;50.938;7.286;2022-11-04T06:32:21;12.30;;;4.75;;
34497;SDS011;20744;50.938;7.286;2022-11-04T06:34:48;10.73;;;4.50;;
34497;SDS011;20744;50.938;7.286;2022-11-04T06:37:16;6.68;;;4.10;;
34497;SDS011;20744;50.938;7.286;2022-11-04T06:39:44;9.00;;;2.67;;
34497;SDS011;20744;50.938;7.286;2022-11-04T06:42:12;5.63;;;2.30;;
34497;SDS011;20744;50.938;7.286;2022-11-04T06:44:39;7.63;;;2.47;;
34497;SDS011;20744;50.938;7.286;2022-11-04T06:47:06;10.10;;;2.85;;
34497;SDS011;20744;50.938;7.286;2022-11-04T06:49:33;7.90;;;2.78;;
34497;SDS011;20744;50.938;7.286;2022-11-04T06:52:01;7.78;;;2.80;;
34497;SDS011;20744;50.938;7.286;2022-11-04T06:54:28;10.32;;;2.35;;
34497;SDS011;20744;50.938;7.286;2022-11-04T06:56:56;11.48;;;4.15;;
34497;SDS011;20744;50.938;7.286;2022-11-04T06:59:24;11.98;;;3.70;;
34497;SDS011;20744;50.938;7.286;2022-11-04T07:01:51;9.05;;;2.78;;
34497;SDS011;20744;50.938;7.286;2022-11-04T07:04:18;13.77;;;3.10;;
34497;SDS011;20744;50.938;7.286;2022-11-04T07:06:45;10.73;;;2.42;;
34497;SDS011;20744;50.938;7.286;2022-11-04T07:09:13;7.70;;;2.38;;
34497;SDS011;20744;50.938;7.286;2022-11-04T07:11:41;8.15;;;2.10;;
34497;SDS011;20744;50.938;7.286;2022-11-04T07:14:10;6.10;;;1.95;;
34497;SDS011;20744;50.938;7.286;2022-11-04T07:16:37;5.47;;;1.88;;
34497;SDS011;20744;50.938;7.286;2022-11-04T07:19:05;6.07;;;2.03;;
34497;SDS011;20744;50.938;7.286;2022-11-04T07:21:32;5.68;;;2.05;;
34497;SDS011;20744;50.938;7.286;2022-11-04T07:23:59;6.45;;;2.20;;
34497;SDS011;20744;50.938;7.286;2022-11-04T07:26:27;6.30;;;2.20;;
34497;SDS011;20744;50.938;7.286;2022-11-04T07:28:54;9.10;;;2.03;;
34497;SDS011;20744;50.938;7.286;2022-11-04T07:31:23;11.98;;;2.05;;
34497;SDS011;20744;50.938;7.286;2022-11-04T07:33:50;7.55;;;2.28;;
34497;SDS011;20744;50.938;7.286;2022-11-04T07:36:18;5.82;;;2.22;;
34497;SDS011;20744;50.938;7.286;2022-11-04T07:38:45;12.82;;;2.20;;
34497;SDS011;20744;50.938;7.286;2022-11-04T07:41:13;10.13;;;2.50;;
34497;SDS011;20744;50.938;7.286;2022-11-04T07:43:40;7.15;;;2.60;;
34497;SDS011;20744;50.938;7.286;2022-11-04T07:46:08;11.02;;;2.90;;
34497;SDS011;20744;50.938;7.286;2022-11-04T07:48:37;11.32;;;2.42;;
34497;SDS011;20744;50.938;7.286;2022-11-04T07:51:04;12.00;;;3.05;;
34497;SDS011;20744;50.938;7.286;2022-11-04T07:53:32;10.13;;;3.03;;
34497;SDS011;20744;50.938;7.286;2022-11-04T07:56:01;7.82;;;2.70;;
34497;SDS011;20744;50.938;7.286;2022-11-04T07:58:29;11.82;;;3.05;;
34497;SDS011;20744;50.938;7.286;2022-11-04T08:00:57;13.07;;;2.92;;
34497;SDS011;20744;50.938;7.286;2022-11-04T08:03:24;11.85;;;2.80;;
34497;SDS011;20744;50.938;7.286;2022-11-04T08:05:56;9.25;;;2.33;;
34497;SDS011;20744;50.938;7.286;2022-11-04T08:08:24;10.20;;;2.40;;
34497;SDS011;20744;50.938;7.286;2022-11-04T08:10:52;16.75;;;3.28;;
34497;SDS011;20744;50.938;7.286;2022-11-04T08:13:19;11.73;;;2.97;;
34497;SDS011;20744;50.938;7.286;2022-11-04T08:15:46;11.95;;;3.42;;
34497;SDS011;20744;50.938;7.286;2022-11-04T08:18:13;11.40;;;2.70;;
34497;SDS011;20744;50.938;7.286;2022-11-04T08:20:45;11.13;;;3.17;;
34497;SDS011;20744;50.938;7.286;2022-11-04T08:23:15;8.18;;;2.92;;
34497;SDS011;20744;50.938;7.286;2022-11-04T08:25:43;10.18;;;2.60;;
34497;SDS011;20744;50.938;7.286;2022-11-04T08:28:10;15.52;;;3.15;;
34497;SDS011;20744;50.938;7.286;2022-11-04T08:30:41;6.07;;;2.03;;
34497;SDS011;20744;50.938;7.286;2022-11-04T08:33:08;8.88;;;2.65;;
34497;SDS011;20744;50.938;7.286;2022-11-04T08:35:36;7.10;;;2.08;;
34497;SDS011;20744;50.938;7.286;2022-11-04T08:38:05;9.38;;;2.70;;
34497;SDS011;20744;50.938;7.286;2022-11-04T08:40:35;9.55;;;2.67;;
34497;SDS011;20744;50.938;7.286;2022-11-04T08:43:03;10.27;;;2.50;;
34497;SDS011;20744;50.938;7.286;2022-11-04T08:45:30;15.68;;;3.13;;
34497;SDS011;20744;50.938;7.286;2022-11-04T08:47:57;17.65;;;3.33;;
34497;SDS011;20744;50.938;7.286;2022-11-04T08:50:24;9.40;;;2.50;;
34497;SDS011;20744;50.938;7.286;2022-11-04T08:52:52;12.43;;;3.05;;
34497;SDS011;20744;50.938;7.286;2022-11-04T08:55:19;12.77;;;3.00;;
34497;SDS011;20744;50.938;7.286;2022-11-04T08:57:48;13.60;;;2.80;;
34497;SDS011;20744;50.938;7.286;2022-11-04T09:00:15;11.60;;;2.88;;
34497;SDS011;20744;50.938;7.286;2022-11-04T09:02:42;12.27;;;2.65;;
34497;SDS011;20744;50.938;7.286;2022-11-04T09:05:10;10.20;;;2.50;;
34497;SDS011;20744;50.938;7.286;2022-11-04T09:07:38;18.70;;;2.92;;
34497;SDS011;20744;50.938;7.286;2022-11-04T09:10:05;10.57;;;2.30;;
34497;SDS011;20744;50.938;7.286;2022-11-04T09:12:33;8.30;;;2.42;;
34497;SDS011;20744;50.938;7.286;2022-11-04T09:15:01;11.93;;;2.72;;
34497;SDS011;20744;50.938;7.286;2022-11-04T09:17:29;14.85;;;2.65;;
34497;SDS011;20744;50.938;7.286;2022-11-04T09:19:57;7.85;;;1.75;;
34497;SDS011;20744;50.938;7.286;2022-11-04T09:22:24;6.97;;;1.95;;
34497;SDS011;20744;50.938;7.286;2022-11-04T09:24:52;7.57;;;2.08;;
34497;SDS011;20744;50.938;7.286;2022-11-04T09:27:19;9.70;;;2.00;;
34497;SDS011;20744;50.938;7.286;2022-11-04T09:29:46;13.50;;;2.50;;
34497;SDS011;20744;50.938;7.286;2022-11-04T09:32:15;8.35;;;1.90;;
34497;SDS011;20744;50.938;7.286;2022-11-04T09:34:42;13.27;;;2.05;;
34497;SDS011;20744;50.938;7.286;2022-11-04T09:37:09;9.18;;;1.80;;
34497;SDS011;20744;50.938;7.286;2022-11-04T09:39:37;11.10;;;2.03;;
34497;SDS011;20744;50.938;7.286;2022-11-04T09:42:10;13.15;;;2.30;;
34497;SDS011;20744;50.938;7.286;2022-11-04T09:44:46;7.95;;;1.90;;
34497;SDS011;20744;50.938;7.286;2022-11-04T09:47:16;10.38;;;1.88;;
34497;SDS011;20744;50.938;7.286;2022-11-04T09:49:44;17.73;;;2.28;;
34497;SDS011;20744;50.938;7.286;2022-11-04T09:52:14;12.43;;;2.40;;
34497;SDS011;20744;50.938;7.286;2022-11-04T09:54:45;9.00;;;2.25;;
34497;SDS011;20744;50.938;7.286;2022-11-04T09:57:17;6.55;;;1.90;;
34497;SDS011;20744;50.938;7.286;2022-11-04T09:59:44;6.72;;;1.77;;
34497;SDS011;20744;50.938;7.286;2022-11-04T10:05:08;6.72;;;1.88;;
34497;SDS011;20744;50.938;7.286;2022-11-04T10:07:41;7.45;;;2.13;;
34497;SDS011;20744;50.938;7.286;2022-11-04T10:10:11;9.43;;;2.28;;
34497;SDS011;20744;50.938;7.286;2022-11-04T10:13:01;9.02;;;2.08;;
34497;SDS011;20744;50.938;7.286;2022-11-04T10:15:35;12.65;;;2.47;;
34497;SDS011;20744;50.938;7.286;2022-11-04T10:18:08;10.60;;;2.63;;
34497;SDS011;20744;50.938;7.286;2022-11-04T10:20:44;9.98;;;1.90;;
34497;SDS011;20744;50.938;7.286;2022-11-04T10:23:16;7.95;;;1.88;;
34497;SDS011;20744;50.938;7.286;2022-11-04T10:25:46;9.15;;;2.00;;
34497;SDS011;20744;50.938;7.286;2022-11-04T10:28:14;8.23;;;1.95;;
34497;SDS011;20744;50.938;7.286;2022-11-04T10:30:43;8.38;;;1.92;;
34497;SDS011;20744;50.938;7.286;2022-11-04T10:33:12;8.43;;;2.10;;
34497;SDS011;20744;50.938;7.286;2022-11-04T10:35:45;10.35;;;2.20;;
34497;SDS011;20744;50.938;7.286;2022-11-04T10:38:15;8.80;;;2.13;;
34497;SDS011;20744;50.938;7.286;2022-11-04T10:40:45;10.30;;;2.05;;
34497;SDS011;20744;50.938;7.286;2022-11-04T10:43:12;10.05;;;2.00;;
34497;SDS011;20744;50.938;7.286;2022-11-04T10:45:43;12.27;;;2.30;;
34497;SDS011;20744;50.938;7.286;2022-11-04T10:48:12;7.82;;;1.88;;
34497;SDS011;20744;50.938;7.286;2022-11-04T10:50:43;12.02;;;2.28;;
34497;SDS011;20744;50.938;7.286;2022-11-04T10:53:15;10.48;;;2.00;;
34497;SDS011;20744;50.938;7.286;2022-11-04T10:55:46;7.47;;;1.77;;
34497;SDS011;20744;50.938;7.286;2022-11-04T10:58:17;9.40;;;1.88;;
34497;SDS011;20744;50.938;7.286;2022-11-04T11:00:46;8.05;;;1.73;;
34497;SDS011;20744;50.938;7.286;2022-11-04T11:03:21;8.55;;;1.58;;
34497;SDS011;20744;50.938;7.286;2022-11-04T11:08:26;7.95;;;1.52;;
34497;SDS011;20744;50.938;7.286;2022-11-04T11:10:54;9.05;;;1.50;;
34497;SDS011;20744;50.938;7.286;2022-11-04T11:13:25;7.90;;;1.80;;
34497;SDS011;20744;50.938;7.286;2022-11-04T11:16:04;8.20;;;2.42;;
34497;SDS011;20744;50.938;7.286;2022-11-04T11:18:31;9.18;;;1.60;;
34497;SDS011;20744;50.938;7.286;2022-11-04T11:21:05;7.45;;;1.35;;
34497;SDS011;20744;50.938;7.286;2022-11-04T11:23:35;6.03;;;1.35;;
34497;SDS011;20744;50.938;7.286;2022-11-04T11:26:04;4.97;;;1.30;;
34497;SDS011;20744;50.938;7.286;2022-11-04T11:28:32;9.18;;;1.75;;
34497;SDS011;20744;50.938;7.286;2022-11-04T11:31:02;9.63;;;1.70;;
34497;SDS011;20744;50.938;7.286;2022-11-04T11:33:33;5.10;;;1.17;;
34497;SDS011;20744;50.938;7.286;2022-11-04T11:36:02;8.88;;;1.65;;
34497;SDS011;20744;50.938;7.286;2022-11-04T11:38:31;5.10;;;1.25;;
34497;SDS011;20744;50.938;7.286;2022-11-04T11:41:05;4.43;;;1.33;;
34497;SDS011;20744;50.938;7.286;2022-11-04T11:43:33;5.82;;;1.30;;
34497;SDS011;20744;50.938;7.286;2022-11-04T11:46:01;5.22;;;1.45;;
34497;SDS011;20744;50.938;7.286;2022-11-04T11:48:30;5.22;;;1.20;;
34497;SDS011;20744;50.938;7.286;2022-11-04T11:50:57;4.72;;;1.48;;
34497;SDS011;20744;50.938;7.286;2022-11-04T11:53:25;5.43;;;1.20;;
34497;SDS011;20744;50.938;7.286;2022-11-04T11:55:55;6.85;;;1.13;;
34497;SDS011;20744;50.938;7.286;2022-11-04T11:58:27;6.47;;;1.20;;
34497;SDS011;20744;50.938;7.286;2022-11-04T12:00:57;6.63;;;1.38;;
34497;SDS011;20744;50.938;7.286;2022-11-04T12:03:28;6.25;;;1.00;;
34497;SDS011;20744;50.938;7.286;2022-11-04T12:06:03;5.97;;;1.40;;
34497;SDS011;20744;50.938;7.286;2022-11-04T12:11:25;6.53;;;1.77;;
34497;SDS011;20744;50.938;7.286;2022-11-04T12:13:55;5.40;;;1.02;;
34497;SDS011;20744;50.938;7.286;2022-11-04T12:16:27;6.43;;;1.48;;
34497;SDS011;20744;50.938;7.286;2022-11-04T12:19:01;4.25;;;1.27;;
34497;SDS011;20744;50.938;7.286;2022-11-04T12:21:31;6.47;;;1.88;;
34497;SDS011;20744;50.938;7.286;2022-11-04T12:24:00;6.68;;;1.50;;
34497;SDS011;20744;50.938;7.286;2022-11-04T12:26:32;4.43;;;1.15;;
34497;SDS011;20744;50.938;7.286;2022-11-04T12:29:09;6.15;;;1.23;;
34497;SDS011;20744;50.938;7.286;2022-11-04T12:31:42;8.90;;;1.10;;
34497;SDS011;20744;50.938;7.286;2022-11-04T12:34:18;5.20;;;1.23;;
34497;SDS011;20744;50.938;7.286;2022-11-04T12:36:52;3.30;;;1.13;;
34497;SDS011;20744;50.938;7.286;2022-11-04T12:39:27;4.20;;;1.02;;
34497;SDS011;20744;50.938;7.286;2022-11-04T12:42:00;3.92;;;1.20;;
34497;SDS011;20744;50.938;7.286;2022-11-04T12:44:31;5.18;;;1.45;;
34497;SDS011;20744;50.938;7.286;2022-11-04T12:47:06;5.68;;;1.40;;
34497;SDS011;20744;50.938;7.286;2022-11-04T12:49:46;6.93;;;1.30;;
34497;SDS011;20744;50.938;7.286;2022-11-04T12:52:19;5.75;;;1.58;;
34497;SDS011;20744;50.938;7.286;2022-11-04T12:54:54;5.97;;;1.40;;
34497;SDS011;20744;50.938;7.286;2022-11-04T12:57:27;5.75;;;1.13;;
34497;SDS011;20744;50.938;7.286;2022-11-04T13:00:12;5.47;;;1.23;;
34497;SDS011;20744;50.938;7.286;2022-11-04T13:02:41;11.95;;;1.23;;
34497;SDS011;20744;50.938;7.286;2022-11-04T13:05:16;8.38;;;1.20;;
34497;SDS011;20744;50.938;7.286;2022-11-04T13:07:47;7.30;;;1.45;;
34497;SDS011;20744;50.938;7.286;2022-11-04T13:10:17;6.95;;;1.55;;
34497;SDS011;20744;50.938;7.286;2022-11-04T13:12:46;4.50;;;1.35;;
34497;SDS011;20744;50.938;7.286;2022-11-04T13:15:17;8.98;;;1.60;;
34497;SDS011;20744;50.938;7.286;2022-11-04T13:17:46;6.15;;;1.35;;
34497;SDS011;20744;50.938;7.286;2022-11-04T13:20:16;4.03;;;1.25;;
34497;SDS011;20744;50.938;7.286;2022-11-04T13:22:48;5.15;;;1.20;;
34497;SDS011;20744;50.938;7.286;2022-11-04T13:25:16;4.60;;;1.08;;
34497;SDS011;20744;50.938;7.286;2022-11-04T13:27:46;8.13;;;1.77;;
34497;SDS011;20744;50.938;7.286;2022-11-04T13:30:18;5.78;;;1.48;;
34497;SDS011;20744;50.938;7.286;2022-11-04T13:32:46;4.47;;;1.30;;
34497;SDS011;20744;50.938;7.286;2022-11-04T13:35:18;8.07;;;1.38;;
34497;SDS011;20744;50.938;7.286;2022-11-04T13:37:48;7.05;;;1.55;;
34497;SDS011;20744;50.938;7.286;2022-11-04T13:40:19;4.45;;;1.02;;
34497;SDS011;20744;50.938;7.286;2022-11-04T13:43:06;4.93;;;1.33;;
34497;SDS011;20744;50.938;7.286;2022-11-04T13:45:56;4.32;;;0.80;;
34497;SDS011;20744;50.938;7.286;2022-11-04T13:48:24;5.50;;;1.23;;
34497;SDS011;20744;50.938;7.286;2022-11-04T13:50:56;6.15;;;0.90;;
34497;SDS011;20744;50.938;7.286;2022-11-04T13:53:42;7.72;;;1.55;;
34497;SDS011;20744;50.938;7.286;2022-11-04T13:56:15;6.43;;;1.30;;
34497;SDS011;20744;50.938;7.286;2022-11-04T13:58:52;4.72;;;1.30;;
34497;SDS011;20744;50.938;7.286;2022-11-04T14:01:26;6.88;;;1.52;;
34497;SDS011;20744;50.938;7.286;2022-11-04T14:04:00;5.93;;;1.80;;
34497;SDS011;20744;50.938;7.286;2022-11-04T14:06:47;7.20;;;1.77;;
34497;SDS011;20744;50.938;7.286;2022-11-04T14:15:07;6.05;;;1.80;;
34497;SDS011;20744;50.938;7.286;2022-11-04T14:20:22;12.38;;;4.45;;
34497;SDS011;20744;50.938;7.286;2022-11-04T14:22:53;10.50;;;4.13;;
34497;SDS011;20744;50.938;7.286;2022-11-04T14:25:25;9.50;;;3.25;;
34497;SDS011;20744;50.938;7.286;2022-11-04T14:27:53;12.50;;;2.85;;
34497;SDS011;20744;50.938;7.286;2022-11-04T14:33:20;7.03;;;2.63;;
34497;SDS011;20744;50.938;7.286;2022-11-04T14:35:49;7.30;;;2.60;;
34497;SDS011;20744;50.938;7.286;2022-11-04T14:38:21;17.65;;;2.88;;
34497;SDS011;20744;50.938;7.286;2022-11-04T14:40:51;9.15;;;2.15;;
34497;SDS011;20744;50.938;7.286;2022-11-04T14:43:29;8.23;;;2.38;;
34497;SDS011;20744;50.938;7.286;2022-11-04T14:45:58;10.52;;;2.67;;
34497;SDS011;20744;50.938;7.286;2022-11-04T14:48:26;8.52;;;2.10;;
34497;SDS011;20744;50.938;7.286;2022-11-04T14:50:55;8.43;;;2.55;;
34497;SDS011;20744;50.938;7.286;2022-11-04T14:53:24;9.60;;;2.72;;
34497;SDS011;20744;50.938;7.286;2022-11-04T14:56:02;15.00;;;3.13;;
34497;SDS011;20744;50.938;7.286;2022-11-04T14:58:30;6.68;;;2.63;;
34497;SDS011;20744;50.938;7.286;2022-11-04T15:00:58;8.85;;;2.80;;
34497;SDS011;20744;50.938;7.286;2022-11-04T15:03:26;11.38;;;2.78;;
34497;SDS011;20744;50.938;7.286;2022-11-04T15:05:55;6.45;;;2.72;;
34497;SDS011;20744;50.938;7.286;2022-11-04T15:08:25;10.90;;;2.83;;
34497;SDS011;20744;50.938;7.286;2022-11-04T15:10:56;6.55;;;2.70;;
34497;SDS011;20744;50.938;7.286;2022-11-04T15:13:23;9.90;;;3.15;;
34497;SDS011;20744;50.938;7.286;2022-11-04T15:15:51;9.20;;;3.28;;
34497;SDS011;20744;50.938;7.286;2022-11-04T15:18:19;7.80;;;3.20;;
34497;SDS011;20744;50.938;7.286;2022-11-04T15:20:48;11.85;;;3.40;;
34497;SDS011;20744;50.938;7.286;2022-11-04T15:23:19;9.88;;;3.42;;
34497;SDS011;20744;50.938;7.286;2022-11-04T15:25:49;10.30;;;4.30;;
34497;SDS011;20744;50.938;7.286;2022-11-04T15:28:20;8.82;;;4.47;;
34497;SDS011;20744;50.938;7.286;2022-11-04T15:30:59;11.60;;;4.07;;
34497;SDS011;20744;50.938;7.286;2022-11-04T15:33:26;17.85;;;4.70;;